createdAt,value
2019-03-16T00:00:14.921Z,84.80
2019-03-16T00:02:45.886Z,85.20
2019-03-16T00:05:15.094Z,85.00
2019-03-16T00:07:44.325Z,84.80
2019-03-16T00:10:13.558Z,84.80
2019-03-16T00:12:42.818Z,84.40
2019-03-16T00:15:12.009Z,84.40
2019-03-16T00:17:41.172Z,84.10
2019-03-16T00:20:11.526Z,84.10
2019-03-16T00:22:40.668Z,84.00
2019-03-16T00:25:10.439Z,84.20
2019-03-16T00:27:39.698Z,84.00
2019-03-16T00:30:11.046Z,84.30
2019-03-16T00:32:40.208Z,84.10
2019-03-16T00:35:09.794Z,84.00
2019-03-16T00:37:39.323Z,84.20
2019-03-16T00:40:11.872Z,84.30
2019-03-16T00:42:41.028Z,83.90
2019-03-16T00:45:11.453Z,83.90
2019-03-16T00:47:40.653Z,83.80
2019-03-16T00:50:13.595Z,83.80
2019-03-16T00:52:42.741Z,83.60
2019-03-16T00:55:12.000Z,83.50
2019-03-16T00:57:41.223Z,83.50
2019-03-16T01:00:17.034Z,83.60
2019-03-16T01:02:46.238Z,84.00
2019-03-16T01:05:15.432Z,83.80
2019-03-16T01:07:44.597Z,83.70
2019-03-16T01:10:13.787Z,83.70
2019-03-16T01:12:43.063Z,83.50
2019-03-16T01:15:13.169Z,83.60
2019-03-16T01:17:43.997Z,82.80
2019-03-16T01:20:13.381Z,82.60
2019-03-16T01:22:43.613Z,83.20
2019-03-16T01:25:13.309Z,82.90
2019-03-16T01:27:42.539Z,82.90
2019-03-16T01:30:15.748Z,82.80
2019-03-16T01:32:44.920Z,82.60
2019-03-16T01:35:15.149Z,82.90
2019-03-16T01:37:44.321Z,82.60
2019-03-16T01:40:13.483Z,82.40
2019-03-16T01:42:42.658Z,82.50
2019-03-16T01:45:11.840Z,82.40
2019-03-16T01:47:41.081Z,82.30
2019-03-16T01:50:11.663Z,82.20
2019-03-16T01:52:41.955Z,82.30
2019-03-16T01:55:11.200Z,82.30
2019-03-16T01:57:40.363Z,82.30
2019-03-16T02:00:15.557Z,82.40
2019-03-16T02:02:55.152Z,82.30
2019-03-16T02:05:15.631Z,82.60
2019-03-16T02:07:44.863Z,82.60
2019-03-16T02:10:14.059Z,82.70
2019-03-16T02:12:45.210Z,82.70
2019-03-16T02:15:14.383Z,83.00
2019-03-16T02:17:43.530Z,82.90
2019-03-16T02:20:12.777Z,83.10
2019-03-16T02:22:43.066Z,83.30
2019-03-16T02:25:12.306Z,83.30
2019-03-16T02:27:41.479Z,83.90
2019-03-16T02:30:11.606Z,84.10
2019-03-16T02:32:40.805Z,84.10
2019-03-16T02:35:11.029Z,84.30
2019-03-16T02:37:40.404Z,85.20
2019-03-16T02:40:10.796Z,84.90
2019-03-16T02:42:40.180Z,85.00
2019-03-16T02:45:10.058Z,84.90
2019-03-16T02:47:39.322Z,85.00
2019-03-16T02:50:10.086Z,84.90
2019-03-16T02:52:39.321Z,84.70
2019-03-16T02:55:09.099Z,85.00
2019-03-16T02:57:38.401Z,84.00
2019-03-16T03:00:10.334Z,84.00
2019-03-16T03:02:39.523Z,84.30
2019-03-16T03:05:11.960Z,84.30
2019-03-16T03:07:41.170Z,84.00
2019-03-16T03:10:12.965Z,83.80
2019-03-16T03:12:42.208Z,84.10
2019-03-16T03:15:11.480Z,83.30
2019-03-16T03:17:40.749Z,83.60
2019-03-16T03:20:10.241Z,83.50
2019-03-16T03:22:39.467Z,83.40
2019-03-16T03:25:08.681Z,83.20
2019-03-16T03:27:37.883Z,82.90
2019-03-16T03:30:14.721Z,82.00
2019-03-16T03:32:43.917Z,81.80
2019-03-16T03:35:13.127Z,81.20
2019-03-16T03:37:42.288Z,81.10
2019-03-16T03:40:12.162Z,81.00
2019-03-16T03:42:41.319Z,81.10
2019-03-16T03:45:13.690Z,80.70
2019-03-16T03:47:42.892Z,80.90
2019-03-16T03:50:13.099Z,80.70
2019-03-16T03:52:42.629Z,80.50
2019-03-16T03:55:12.849Z,80.30
2019-03-16T03:57:43.047Z,80.10
2019-03-16T04:00:17.321Z,80.40
2019-03-16T04:02:46.609Z,80.20
2019-03-16T04:05:15.927Z,80.20
2019-03-16T04:07:45.337Z,80.20
2019-03-16T04:10:14.531Z,80.20
2019-03-16T04:12:43.743Z,80.50
2019-03-16T04:15:13.421Z,80.70
2019-03-16T04:17:42.705Z,80.40
2019-03-16T04:20:15.340Z,81.00
2019-03-16T04:22:44.615Z,80.60
2019-03-16T04:25:13.857Z,80.90
2019-03-16T04:27:43.118Z,81.10
2019-03-16T04:30:12.690Z,81.20
2019-03-16T04:32:41.918Z,81.00
2019-03-16T04:35:11.135Z,81.40
2019-03-16T04:37:40.322Z,80.90
2019-03-16T04:40:11.169Z,81.10
2019-03-16T04:42:40.343Z,80.90
2019-03-16T04:45:10.824Z,80.90
2019-03-16T04:47:40.018Z,80.90
2019-03-16T04:50:10.709Z,81.30
2019-03-16T04:52:39.844Z,81.30
2019-03-16T04:55:09.289Z,81.20
2019-03-16T04:57:39.604Z,81.40
2019-03-16T05:00:13.449Z,80.70
2019-03-16T05:02:42.654Z,81.30
2019-03-16T05:05:11.807Z,81.10
2019-03-16T05:07:40.941Z,80.50
2019-03-16T05:10:11.244Z,80.30
2019-03-16T05:12:40.422Z,80.50
2019-03-16T05:15:10.149Z,80.10
2019-03-16T05:17:39.349Z,79.90
2019-03-16T05:20:10.590Z,80.00
2019-03-16T05:22:39.774Z,79.70
2019-03-16T05:25:10.443Z,79.80
2019-03-16T05:27:39.601Z,78.70
2019-03-16T05:30:14.118Z,78.50
2019-03-16T05:32:43.375Z,78.60
2019-03-16T05:35:13.654Z,78.00
2019-03-16T05:37:42.977Z,78.10
2019-03-16T05:40:12.135Z,77.40
2019-03-16T05:42:41.533Z,77.70
2019-03-16T05:45:10.841Z,77.20
2019-03-16T05:47:40.111Z,77.10
2019-03-16T05:50:11.786Z,77.90
2019-03-16T05:52:44.203Z,76.70
2019-03-16T05:55:13.583Z,76.40
2019-03-16T05:57:42.877Z,76.60
2019-03-16T06:00:14.074Z,76.00
2019-03-16T06:02:43.617Z,76.20
2019-03-16T06:05:13.069Z,75.60
2019-03-16T06:07:42.445Z,75.90
2019-03-16T06:10:12.173Z,75.50
2019-03-16T06:12:41.626Z,75.80
2019-03-16T06:15:11.359Z,75.60
2019-03-16T06:17:40.551Z,74.90
2019-03-16T06:20:11.694Z,75.30
2019-03-16T06:22:40.868Z,75.20
2019-03-16T06:25:10.052Z,75.00
2019-03-16T06:27:39.403Z,74.90
2019-03-16T06:30:20.774Z,74.70
2019-03-16T06:32:49.292Z,74.60
2019-03-16T06:35:24.979Z,74.70
2019-03-16T06:37:49.752Z,74.80
2019-03-16T06:40:19.010Z,74.90
2019-03-16T06:42:48.200Z,74.80
2019-03-16T06:45:17.466Z,74.80
2019-03-16T06:47:46.661Z,74.40
2019-03-16T06:50:16.076Z,74.60
2019-03-16T06:52:45.226Z,74.80
2019-03-16T06:55:14.459Z,74.50
2019-03-16T06:57:43.602Z,74.80
2019-03-16T07:00:14.923Z,74.80
2019-03-16T07:02:44.181Z,74.50
2019-03-16T07:05:13.860Z,74.60
2019-03-16T07:07:43.202Z,74.50
2019-03-16T07:10:13.294Z,74.30
2019-03-16T07:12:42.481Z,74.50
2019-03-16T07:15:12.782Z,74.50
2019-03-16T07:17:41.938Z,74.20
2019-03-16T07:20:13.318Z,74.10
2019-03-16T07:22:42.482Z,73.60
2019-03-16T07:25:11.724Z,73.50
2019-03-16T07:27:40.946Z,73.70
2019-03-16T07:30:12.478Z,73.20
2019-03-16T07:32:41.633Z,73.10
2019-03-16T07:35:10.787Z,72.80
2019-03-16T07:37:39.959Z,73.00
2019-03-16T07:40:11.057Z,72.70
2019-03-16T07:42:40.241Z,72.50
2019-03-16T07:45:10.538Z,72.00
2019-03-16T07:47:39.718Z,71.60
2019-03-16T07:50:15.541Z,71.80
2019-03-16T07:52:44.782Z,71.90
2019-03-16T07:55:13.931Z,72.20
2019-03-16T07:57:43.106Z,72.00
2019-03-16T08:00:12.630Z,71.90
2019-03-16T08:02:41.939Z,71.20
2019-03-16T08:05:18.148Z,71.40
2019-03-16T08:07:41.992Z,71.00
2019-03-16T08:10:11.681Z,70.80
2019-03-16T08:12:40.950Z,70.50
2019-03-16T08:15:11.014Z,71.10
2019-03-16T08:17:40.431Z,70.70
2019-03-16T08:20:10.659Z,70.60
2019-03-16T08:22:40.048Z,70.60
2019-03-16T08:25:10.291Z,69.70
2019-03-16T08:27:52.959Z,69.50
2019-03-16T08:30:11.532Z,70.10
2019-03-16T08:32:40.697Z,69.70
2019-03-16T08:35:10.003Z,69.50
2019-03-16T08:37:39.344Z,69.80
2019-03-16T08:40:10.732Z,68.10
2019-03-16T08:42:39.944Z,68.20
2019-03-16T08:45:10.141Z,67.90
2019-03-16T08:47:39.505Z,67.70
2019-03-16T08:50:10.510Z,67.80
2019-03-16T08:52:39.909Z,68.10
2019-03-16T08:55:10.219Z,68.50
2019-03-16T08:57:39.895Z,67.80
2019-03-16T09:00:11.935Z,67.90
2019-03-16T09:02:41.894Z,67.60
2019-03-16T09:05:11.227Z,67.00
2019-03-16T09:07:40.569Z,66.50
2019-03-16T09:10:10.878Z,66.30
2019-03-16T09:12:40.049Z,66.40
2019-03-16T09:15:14.605Z,66.20
2019-03-16T09:17:43.842Z,64.70
2019-03-16T09:20:13.173Z,64.00
2019-03-16T09:22:42.745Z,63.00
2019-03-16T09:25:11.900Z,62.70
2019-03-16T09:27:41.063Z,62.80
2019-03-16T09:30:13.319Z,61.90
2019-03-16T09:32:42.518Z,61.50
2019-03-16T09:35:11.671Z,60.00
2019-03-16T09:37:40.918Z,58.90
2019-03-16T09:40:10.715Z,58.70
2019-03-16T09:42:39.881Z,57.90
2019-03-16T09:45:11.377Z,58.20
2019-03-16T09:47:40.614Z,56.60
2019-03-16T09:50:10.824Z,57.00
2019-03-16T09:52:40.046Z,57.40
2019-03-16T09:55:12.816Z,56.10
2019-03-16T09:57:42.004Z,57.00
2019-03-16T10:00:17.634Z,56.70
2019-03-16T10:02:46.800Z,57.20
2019-03-16T10:05:16.032Z,56.90
2019-03-16T10:07:45.281Z,57.10
2019-03-16T10:10:15.338Z,57.60
2019-03-16T10:12:44.504Z,58.00
2019-03-16T10:15:15.020Z,58.60
2019-03-16T10:17:44.172Z,55.20
2019-03-16T10:20:14.281Z,54.00
2019-03-16T10:22:43.509Z,51.40
2019-03-16T10:25:12.722Z,48.70
2019-03-16T10:27:41.906Z,47.10
2019-03-16T10:30:14.982Z,46.70
2019-03-16T10:32:44.198Z,47.70
2019-03-16T10:35:13.540Z,47.00
2019-03-16T10:37:42.710Z,47.40
2019-03-16T10:40:13.207Z,48.20
2019-03-16T10:42:42.383Z,45.00
2019-03-16T10:45:12.023Z,42.20
2019-03-16T10:47:41.229Z,40.80
2019-03-16T10:50:15.450Z,44.40
2019-03-16T10:52:44.587Z,48.30
2019-03-16T10:55:13.804Z,51.50
2019-03-16T10:57:43.031Z,52.60
2019-03-16T11:00:14.810Z,52.20
2019-03-16T11:02:44.015Z,53.30
2019-03-16T11:05:13.166Z,53.10
2019-03-16T11:07:42.490Z,51.40
2019-03-16T11:10:12.948Z,50.20
2019-03-16T11:12:42.154Z,50.90
2019-03-16T11:15:12.088Z,48.60
2019-03-16T11:17:41.421Z,50.50
2019-03-16T11:20:18.968Z,48.80
2019-03-16T11:22:48.331Z,47.90
2019-03-16T11:25:17.630Z,45.10
2019-03-16T11:27:46.830Z,42.30
2019-03-16T11:30:17.127Z,44.30
2019-03-16T11:32:47.272Z,45.80
2019-03-16T11:35:16.488Z,48.00
2019-03-16T11:37:45.818Z,49.60
2019-03-16T11:40:16.405Z,51.00
2019-03-16T11:42:45.665Z,51.80
2019-03-16T11:45:17.134Z,49.00
2019-03-16T11:47:46.050Z,46.80
2019-03-16T11:50:19.885Z,44.90
2019-03-16T11:52:49.232Z,43.50
2019-03-16T11:55:18.583Z,43.60
2019-03-16T11:57:47.879Z,44.60
2019-03-16T12:00:17.198Z,45.40
2019-03-16T12:02:46.555Z,46.00
2019-03-16T12:05:16.137Z,47.00
2019-03-16T12:07:46.359Z,48.00
2019-03-16T12:10:15.938Z,48.50
2019-03-16T12:12:45.207Z,48.60
2019-03-16T12:15:15.806Z,49.40
2019-03-16T12:17:44.993Z,49.60
2019-03-16T12:20:18.228Z,49.80
2019-03-16T12:22:46.686Z,50.00
2019-03-16T12:25:16.090Z,50.70
2019-03-16T12:27:45.591Z,51.60
2019-03-16T12:30:16.647Z,51.80
2019-03-16T12:32:46.232Z,51.30
2019-03-16T12:35:15.692Z,51.10
2019-03-16T12:37:45.095Z,50.90
2019-03-16T12:40:15.081Z,50.30
2019-03-16T12:42:44.334Z,50.90
2019-03-16T12:45:20.233Z,51.90
2019-03-16T12:47:48.668Z,51.60
2019-03-16T12:50:18.040Z,51.60
2019-03-16T12:52:47.402Z,51.60
2019-03-16T12:55:16.731Z,51.80
2019-03-16T12:57:47.986Z,51.60
2019-03-16T13:00:20.271Z,51.80
2019-03-16T13:02:49.565Z,52.00
2019-03-16T13:05:19.870Z,52.60
2019-03-16T13:07:49.311Z,52.70
2019-03-16T13:10:19.472Z,52.20
2019-03-16T13:12:48.972Z,51.40
2019-03-16T13:15:18.182Z,50.40
2019-03-16T13:17:47.439Z,49.90
2019-03-16T13:20:17.202Z,49.30
2019-03-16T13:22:46.511Z,48.60
2019-03-16T13:25:15.842Z,48.30
2019-03-16T13:27:45.014Z,48.00
2019-03-16T13:30:19.209Z,46.60
2019-03-16T13:32:48.427Z,45.30
2019-03-16T13:35:17.650Z,44.70
2019-03-16T13:37:46.897Z,43.00
2019-03-16T13:40:17.458Z,41.10
2019-03-16T13:42:46.609Z,40.70
2019-03-16T13:45:15.821Z,40.50
2019-03-16T13:47:45.090Z,41.30
2019-03-16T13:50:18.325Z,41.30
2019-03-16T13:52:47.883Z,39.00
2019-03-16T13:55:17.189Z,35.90
2019-03-16T13:57:46.483Z,37.30
2019-03-16T14:00:20.052Z,37.70
2019-03-16T14:02:48.652Z,34.90
2019-03-16T14:05:17.750Z,33.40
2019-03-16T14:07:47.109Z,31.30
2019-03-16T14:10:19.597Z,32.20
2019-03-16T14:12:48.743Z,33.50
2019-03-16T14:15:17.921Z,33.90
2019-03-16T14:17:47.151Z,34.70
2019-03-16T14:20:16.937Z,37.30
2019-03-16T14:22:46.148Z,38.70
2019-03-16T14:25:15.373Z,38.80
2019-03-16T14:27:44.554Z,38.20
2019-03-16T14:30:39.413Z,38.30
2019-03-16T14:32:51.562Z,39.60
2019-03-16T14:35:20.812Z,40.00
2019-03-16T14:37:50.053Z,40.40
2019-03-16T14:40:19.533Z,39.00
2019-03-16T14:42:48.820Z,35.90
2019-03-16T14:45:18.397Z,31.40
2019-03-16T14:47:47.729Z,29.50
2019-03-16T14:50:22.141Z,27.70
2019-03-16T14:52:51.410Z,27.60
2019-03-16T14:55:20.590Z,29.90
2019-03-16T14:57:49.854Z,32.60
2019-03-16T15:00:19.354Z,35.30
2019-03-16T15:02:48.540Z,36.20
2019-03-16T15:05:17.797Z,36.20
2019-03-16T15:07:49.745Z,35.70
2019-03-16T15:10:18.440Z,35.70
2019-03-16T15:12:47.828Z,37.60
2019-03-16T15:15:18.177Z,37.00
2019-03-16T15:17:47.452Z,37.10
2019-03-16T15:20:16.679Z,36.60
2019-03-16T15:22:46.112Z,37.80
2019-03-16T15:25:15.544Z,37.40
2019-03-16T15:27:45.184Z,37.50
2019-03-16T15:30:19.468Z,38.20
2019-03-16T15:32:48.900Z,38.80
2019-03-16T15:35:18.201Z,38.80
2019-03-16T15:37:47.583Z,38.30
2019-03-16T15:40:16.994Z,38.60
2019-03-16T15:42:46.285Z,38.10
2019-03-16T15:45:28.810Z,38.90
2019-03-16T15:47:57.951Z,38.90
2019-03-16T15:50:27.132Z,38.50
2019-03-16T15:52:56.357Z,38.60
2019-03-16T15:55:25.648Z,38.80
2019-03-16T15:58:06.945Z,38.60
2019-03-16T16:00:25.722Z,38.60
2019-03-16T16:02:54.945Z,38.60
2019-03-16T16:05:24.223Z,39.00
2019-03-16T16:07:53.542Z,38.40
2019-03-16T16:10:22.849Z,38.60
2019-03-16T16:12:52.242Z,39.30
2019-03-16T16:15:21.589Z,39.20
2019-03-16T16:17:51.264Z,40.00
2019-03-16T16:20:20.688Z,40.00
2019-03-16T16:22:49.852Z,39.90
2019-03-16T16:25:19.172Z,40.10
2019-03-16T16:27:48.338Z,40.10
2019-03-16T16:30:18.722Z,39.80
2019-03-16T16:32:48.153Z,40.20
2019-03-16T16:35:17.515Z,40.30
2019-03-16T16:37:46.684Z,40.10
2019-03-16T16:40:17.009Z,40.20
2019-03-16T16:42:46.337Z,40.80
2019-03-16T16:45:16.406Z,41.00
2019-03-16T16:47:45.679Z,41.00
2019-03-16T16:50:23.007Z,41.00
2019-03-16T16:52:52.414Z,41.10
2019-03-16T16:55:21.584Z,41.30
2019-03-16T16:57:51.875Z,41.10
2019-03-16T17:00:28.726Z,41.60
2019-03-16T17:02:57.967Z,41.30
2019-03-16T17:05:27.829Z,41.70
2019-03-16T17:07:57.131Z,42.20
2019-03-16T17:10:26.371Z,41.60
2019-03-16T17:12:55.522Z,41.80
2019-03-16T17:15:24.985Z,42.40
2019-03-16T17:17:54.173Z,41.70
2019-03-16T17:20:23.429Z,42.40
2019-03-16T17:22:52.653Z,42.10
2019-03-16T17:25:21.824Z,42.20
2019-03-16T17:27:54.065Z,42.60
2019-03-16T17:30:30.047Z,42.70
2019-03-16T17:32:59.228Z,42.70
2019-03-16T17:35:28.466Z,43.00
2019-03-16T17:37:57.620Z,43.30
2019-03-16T17:40:26.896Z,43.40
2019-03-16T17:42:56.152Z,43.60
2019-03-16T17:45:25.548Z,43.70
2019-03-16T17:47:54.721Z,43.90
2019-03-16T17:50:24.009Z,44.20
2019-03-16T17:52:54.414Z,44.50
2019-03-16T17:55:23.877Z,44.80
2019-03-16T17:57:53.125Z,44.80
2019-03-16T18:00:22.364Z,44.90
2019-03-16T18:02:52.671Z,45.60
2019-03-16T18:05:24.834Z,45.50
2019-03-16T18:07:54.275Z,45.80
2019-03-16T18:10:23.539Z,45.80
2019-03-16T18:12:52.777Z,46.10
2019-03-16T18:15:21.981Z,46.80
2019-03-16T18:17:51.272Z,48.00
2019-03-16T18:20:20.419Z,48.30
2019-03-16T18:22:49.587Z,48.80
2019-03-16T18:25:19.812Z,49.10
2019-03-16T18:27:49.072Z,49.80
2019-03-16T18:30:20.564Z,49.60
2019-03-16T18:32:49.814Z,50.00
2019-03-16T18:35:19.062Z,49.80
2019-03-16T18:37:48.364Z,50.00
2019-03-16T18:40:17.710Z,50.10
2019-03-16T18:42:47.203Z,50.10
2019-03-16T18:45:18.915Z,50.20
2019-03-16T18:47:48.201Z,50.30
2019-03-16T18:50:17.443Z,50.20
2019-03-16T18:52:46.726Z,50.50
2019-03-16T18:55:16.239Z,50.40
2019-03-16T18:57:45.435Z,51.00
2019-03-16T19:00:19.155Z,51.90
2019-03-16T19:02:48.623Z,51.50
2019-03-16T19:05:18.071Z,51.60
2019-03-16T19:07:47.303Z,51.60
2019-03-16T19:10:17.210Z,51.90
2019-03-16T19:12:46.515Z,51.60
2019-03-16T19:15:16.722Z,51.90
2019-03-16T19:17:58.307Z,51.80
2019-03-16T19:20:17.551Z,51.90
2019-03-16T19:22:48.539Z,51.90
2019-03-16T19:25:19.640Z,51.70
2019-03-16T19:27:49.048Z,51.80
2019-03-16T19:30:18.635Z,51.50
2019-03-16T19:32:47.960Z,51.80
2019-03-16T19:35:17.222Z,51.80
2019-03-16T19:37:46.420Z,52.60
2019-03-16T19:40:19.388Z,53.00
2019-03-16T19:42:48.756Z,53.10
2019-03-16T19:45:17.957Z,52.90
2019-03-16T19:47:47.213Z,53.00
2019-03-16T19:50:17.145Z,53.20
2019-03-16T19:52:46.397Z,53.30
2019-03-16T19:55:15.631Z,54.20
2019-03-16T19:57:44.870Z,53.20
2019-03-16T20:00:16.187Z,53.00
2019-03-16T20:02:51.176Z,52.80
2019-03-16T20:05:16.196Z,52.50
2019-03-16T20:07:45.554Z,52.00
2019-03-16T20:10:17.114Z,51.60
2019-03-16T20:12:46.474Z,51.50
2019-03-16T20:15:16.941Z,51.30
2019-03-16T20:17:46.188Z,51.20
2019-03-16T20:20:16.484Z,51.10
2019-03-16T20:22:45.798Z,51.30
2019-03-16T20:25:15.091Z,50.90
2019-03-16T20:27:44.365Z,50.70
2019-03-16T20:30:15.829Z,50.50
2019-03-16T20:32:50.187Z,50.20
2019-03-16T20:35:15.995Z,50.30
2019-03-16T20:37:45.145Z,50.50
2019-03-16T20:40:15.159Z,50.50
2019-03-16T20:42:47.116Z,50.50
2019-03-16T20:45:16.522Z,50.60
2019-03-16T20:47:45.981Z,50.30
2019-03-16T20:50:17.265Z,51.10
2019-03-16T20:52:46.424Z,50.60
2019-03-16T20:55:15.726Z,50.50
2019-03-16T20:57:44.964Z,50.70
2019-03-16T21:00:16.294Z,50.80
2019-03-16T21:02:45.510Z,50.80
2019-03-16T21:05:14.789Z,50.40
2019-03-16T21:07:44.100Z,50.60
2019-03-16T21:10:13.841Z,50.70
2019-03-16T21:12:43.088Z,50.50
2019-03-16T21:15:18.976Z,50.80
2019-03-16T21:17:48.170Z,50.60
2019-03-16T21:20:19.749Z,50.60
2019-03-16T21:22:48.999Z,50.20
2019-03-16T21:25:18.243Z,50.50
2019-03-16T21:27:47.672Z,48.20
2019-03-16T21:30:18.278Z,47.10
2019-03-16T21:32:47.632Z,46.00
2019-03-16T21:35:16.811Z,45.70
2019-03-16T21:37:46.059Z,45.90
2019-03-16T21:40:15.701Z,45.40
2019-03-16T21:42:45.288Z,44.90
2019-03-16T21:45:14.751Z,44.50
2019-03-16T21:47:44.108Z,45.00
2019-03-16T21:50:14.618Z,44.10
2019-03-16T21:52:44.862Z,43.60
2019-03-16T21:55:15.574Z,43.60
2019-03-16T21:57:44.948Z,43.40
2019-03-16T22:00:15.339Z,43.60
2019-03-16T22:02:45.967Z,43.60
2019-03-16T22:05:16.288Z,43.40
2019-03-16T22:07:45.678Z,43.50
2019-03-16T22:10:19.619Z,43.40
2019-03-16T22:12:48.923Z,43.60
2019-03-16T22:15:18.245Z,43.50
2019-03-16T22:17:48.449Z,43.50
2019-03-16T22:20:18.722Z,43.70
2019-03-16T22:22:47.954Z,43.80
2019-03-16T22:25:17.653Z,44.30
2019-03-16T22:27:46.877Z,44.30
2019-03-16T22:30:19.003Z,44.60
2019-03-16T22:32:48.285Z,44.90
2019-03-16T22:35:17.517Z,45.20
2019-03-16T22:37:46.780Z,45.00
2019-03-16T22:40:16.912Z,44.90
2019-03-16T22:42:46.087Z,45.10
2019-03-16T22:45:15.312Z,45.10
2019-03-16T22:47:47.344Z,45.20
2019-03-16T22:50:20.700Z,45.20
2019-03-16T22:52:49.852Z,45.20
2019-03-16T22:55:19.020Z,45.30
2019-03-16T22:57:49.250Z,45.50
2019-03-16T23:00:30.436Z,46.10
2019-03-16T23:03:01.319Z,46.80
2019-03-16T23:05:30.860Z,46.80
2019-03-16T23:08:00.199Z,47.70
2019-03-16T23:10:29.444Z,48.00
2019-03-16T23:12:58.621Z,47.70
2019-03-16T23:15:27.969Z,48.10
2019-03-16T23:17:57.653Z,48.30
2019-03-16T23:20:27.083Z,48.80
2019-03-16T23:22:56.286Z,49.10
2019-03-16T23:25:25.444Z,49.20
2019-03-16T23:27:54.670Z,49.40
2019-03-16T23:30:23.950Z,49.50
2019-03-16T23:32:53.225Z,49.60
2019-03-16T23:35:22.445Z,49.40
2019-03-16T23:37:51.620Z,49.70
2019-03-16T23:40:20.765Z,51.50
2019-03-16T23:42:49.941Z,53.00
2019-03-16T23:45:19.091Z,53.30
2019-03-16T23:47:48.351Z,53.60
2019-03-16T23:50:17.601Z,54.00
2019-03-16T23:52:46.776Z,54.40
2019-03-16T23:55:16.021Z,54.70
2019-03-16T23:57:45.188Z,54.60
